Etusivu
METAR-TAF:

METAR-TAF

Lentoasemat :

Findelin kansainvälinen lentoasema

Luxemburg, Luxemburg

Leveyspiiri: 49-37N, Pituuspiiri: 006-13E, korkeus merenpinnasta: 376 m

Tämänhetkinen sää

Tämä raportti tehtiin 36 minuuttia sitten, kello 13.20 UTC
Tuuli 4 kn idästä, vaihdellen idän/koillisen ja etelän/kaakon välillä
Lämpötila 21°C
Kosteus 49%
Ilmanpaine 1019 hPa
Näkyvyys 10 km tai enemmän
ei pilviä alle 1500 m:ssä eikä cumulonimbus-pilviä

METAR: ELLX 161320Z 10004KT 060V160 CAVOK 21/10 Q1019 NOSIG

Aika: 15:56 (13:56 UTC)

Sääennuste

Tämä raportti tehtiin 2 tuntia ja 56 minuuttia sitten, kello 11.00 UTC
Ennuste voimassa 16. päivästä klo 12 UTC - 17. päivään klo 18 UTC
Tuuli 8 kn koillisesta
Näkyvyys 10 km tai enemmän
ei pilviä alle 1500 m:ssä eikä cumulonimbus-pilviä

TAF: ELLX 161100Z 1612/1718 05008KT CAVOK

Säähavainnot ja -ennusteet yli 4000 lentoasemalta (METAR- ja TAF-raportit).

Käytössä olevat sääasemat on merkitty karttaan keltaisilla ja punaisilla pisteillä.

Aseta hiiri pisteen päälle nähdäksesi sääaseman nimen.

Klikkaa sitten nähdäksesi säähavainnot ja -ennusteet.

Kartan vaihtaminen: klikkaa mustalla rastilla varustettuja vihreitä pisteitä, niin voit zoomata sisään; viivalla varustettua vihreää pistettä, niin voit zoomata ulos tai vihreitä nuolia, niin pääset viereisille kartoille.


METAR-TAF: